createdAt,value
2019-03-01T00:01:32.941Z,5.05
2019-03-01T00:04:22.412Z,5.09
2019-03-01T00:08:19.223Z,5.05
2019-03-01T00:11:35.767Z,5.16
2019-03-01T00:14:42.515Z,5.03
2019-03-01T00:18:19.286Z,5.05
2019-03-01T00:21:49.569Z,5.05
2019-03-01T00:25:16.066Z,5.08
2019-03-01T00:28:36.712Z,5.10
2019-03-01T00:31:53.886Z,5.13
2019-03-01T00:35:13.921Z,5.12
2019-03-01T00:39:05.589Z,5.13
2019-03-01T00:42:39.980Z,5.16
2019-03-01T00:45:10.615Z,5.09
2019-03-01T00:47:41.435Z,5.19
2019-03-01T00:50:12.062Z,5.18
2019-03-01T00:52:42.714Z,5.17
2019-03-01T00:55:13.432Z,5.21
2019-03-01T00:57:44.096Z,5.13
2019-03-01T01:00:27.370Z,5.13
2019-03-01T01:02:58.025Z,5.11
2019-03-01T01:05:28.711Z,5.16
2019-03-01T01:07:59.540Z,5.08
2019-03-01T01:10:30.428Z,5.12
2019-03-01T01:13:00.995Z,5.13
2019-03-01T01:15:32.027Z,5.13
2019-03-01T01:18:02.733Z,5.13
2019-03-01T01:20:33.362Z,5.13
2019-03-01T01:23:04.467Z,5.13
2019-03-01T01:25:35.221Z,5.17
2019-03-01T01:28:05.922Z,5.08
2019-03-01T01:30:36.998Z,5.16
2019-03-01T01:33:07.673Z,5.07
2019-03-01T01:35:38.343Z,5.01
2019-03-01T01:38:09.049Z,4.95
2019-03-01T01:40:39.658Z,4.96
2019-03-01T01:43:10.363Z,5.02
2019-03-01T01:45:40.982Z,5.03
2019-03-01T01:48:11.675Z,5.05
2019-03-01T01:50:42.328Z,4.97
2019-03-01T01:53:13.085Z,5.08
2019-03-01T01:55:43.908Z,5.09
2019-03-01T01:58:14.663Z,5.02
2019-03-01T02:00:45.412Z,5.02
2019-03-01T02:03:16.094Z,5.02
2019-03-01T02:05:47.204Z,5.05
2019-03-01T02:08:17.955Z,5.06
2019-03-01T02:10:48.694Z,5.03
2019-03-01T02:13:19.440Z,5.06
2019-03-01T02:15:50.023Z,5.12
2019-03-01T02:18:20.857Z,5.08
2019-03-01T02:20:51.501Z,5.01
2019-03-01T02:23:22.169Z,5.03
2019-03-01T02:25:52.834Z,4.99
2019-03-01T02:28:23.563Z,4.97
2019-03-01T02:30:55.437Z,4.98
2019-03-01T02:33:26.094Z,5.02
2019-03-01T02:35:56.817Z,5.03
2019-03-01T02:38:27.512Z,5.01
2019-03-01T02:40:58.237Z,4.96
2019-03-01T02:43:28.913Z,4.96
2019-03-01T02:45:59.669Z,5.02
2019-03-01T02:48:30.345Z,4.98
2019-03-01T02:51:00.981Z,4.99
2019-03-01T02:53:31.571Z,4.96
2019-03-01T02:56:02.247Z,4.97
2019-03-01T02:58:32.887Z,4.95
2019-03-01T03:01:03.877Z,4.92
2019-03-01T03:03:34.529Z,4.92
2019-03-01T03:06:29.979Z,4.95
2019-03-01T03:09:00.721Z,4.96
2019-03-01T03:11:31.405Z,4.87
2019-03-01T03:14:01.984Z,4.91
2019-03-01T03:16:32.836Z,4.87
2019-03-01T03:19:03.581Z,4.89
2019-03-01T03:21:34.294Z,4.90
2019-03-01T03:24:04.914Z,4.90
2019-03-01T03:26:35.410Z,4.87
2019-03-01T03:29:05.941Z,4.87
2019-03-01T03:31:36.493Z,4.89
2019-03-01T03:34:07.077Z,4.84
2019-03-01T03:36:37.620Z,4.83
2019-03-01T03:39:12.620Z,4.83
2019-03-01T03:41:43.162Z,4.84
2019-03-01T03:44:13.676Z,4.84
2019-03-01T03:46:44.355Z,4.79
2019-03-01T03:49:14.852Z,4.66
2019-03-01T03:51:45.374Z,4.70
2019-03-01T03:54:15.891Z,4.71
2019-03-01T03:56:46.579Z,4.79
2019-03-01T03:59:17.041Z,4.83
2019-03-01T04:01:47.633Z,4.75
2019-03-01T04:04:18.127Z,4.69
2019-03-01T04:06:48.614Z,4.64
2019-03-01T04:09:19.123Z,4.64
2019-03-01T04:11:49.607Z,4.70
2019-03-01T04:14:20.146Z,4.63
2019-03-01T04:16:50.683Z,4.60
2019-03-01T04:19:21.240Z,4.63
2019-03-01T04:21:51.711Z,4.62
2019-03-01T04:24:22.189Z,4.68
2019-03-01T04:26:52.766Z,4.59
2019-03-01T04:29:23.251Z,4.62
2019-03-01T04:31:53.767Z,4.58
2019-03-01T04:34:24.283Z,4.61
2019-03-01T04:36:54.758Z,4.67
2019-03-01T04:39:25.312Z,4.64
2019-03-01T04:41:55.851Z,4.78
2019-03-01T04:44:26.392Z,4.78
2019-03-01T04:46:56.929Z,4.75
2019-03-01T04:49:27.442Z,4.78
2019-03-01T04:51:58.090Z,4.72
2019-03-01T04:54:28.690Z,4.78
2019-03-01T04:56:59.206Z,4.79
2019-03-01T04:59:29.688Z,4.86
2019-03-01T05:02:00.410Z,4.76
2019-03-01T05:04:30.944Z,4.71
2019-03-01T05:07:01.499Z,4.67
2019-03-01T05:09:31.998Z,4.80
2019-03-01T05:12:02.889Z,4.80
2019-03-01T05:14:33.392Z,4.66
2019-03-01T05:17:03.942Z,4.63
2019-03-01T05:19:34.613Z,4.66
2019-03-01T05:22:05.118Z,4.65
2019-03-01T05:24:35.721Z,4.58
2019-03-01T05:27:06.273Z,4.62
2019-03-01T05:29:36.798Z,4.44
2019-03-01T05:32:08.390Z,4.37
2019-03-01T05:34:38.938Z,4.38
2019-03-01T05:37:09.464Z,4.36
2019-03-01T05:39:40.068Z,4.34
2019-03-01T05:42:10.624Z,4.33
2019-03-01T05:44:41.160Z,4.36
2019-03-01T05:47:11.739Z,4.44
2019-03-01T05:49:42.271Z,4.46
2019-03-01T05:52:12.803Z,4.59
2019-03-01T05:54:43.314Z,4.49
2019-03-01T05:57:13.839Z,4.43
2019-03-01T05:59:44.347Z,4.61
2019-03-01T06:03:01.769Z,4.49
2019-03-01T06:05:39.450Z,4.44
2019-03-01T06:08:56.590Z,4.43
2019-03-01T06:12:08.907Z,4.46
2019-03-01T06:15:24.473Z,4.48
2019-03-01T06:19:08.838Z,4.43
2019-03-01T06:22:33.194Z,4.34
2019-03-01T06:25:50.504Z,4.46
2019-03-01T06:29:06.640Z,4.38
2019-03-01T06:32:42.260Z,4.28
2019-03-01T06:35:48.099Z,4.15
2019-03-01T06:39:31.638Z,4.15
2019-03-01T06:42:19.243Z,4.13
2019-03-01T06:45:30.788Z,4.10
2019-03-01T06:48:01.299Z,4.09
2019-03-01T06:50:49.571Z,4.12
2019-03-01T06:53:20.097Z,4.13
2019-03-01T06:56:06.853Z,4.06
2019-03-01T06:58:47.594Z,4.05
2019-03-01T07:01:19.504Z,4.06
2019-03-01T07:03:55.088Z,4.06
2019-03-01T07:06:25.628Z,4.06
2019-03-01T07:08:56.179Z,4.03
2019-03-01T07:11:26.717Z,3.99
2019-03-01T07:13:57.258Z,3.89
2019-03-01T07:16:27.815Z,4.09
2019-03-01T07:18:58.536Z,4.00
2019-03-01T07:21:29.047Z,3.91
2019-03-01T07:23:59.590Z,3.83
2019-03-01T07:26:30.118Z,3.90
2019-03-01T07:29:02.194Z,3.85
2019-03-01T07:31:32.769Z,3.93
2019-03-01T07:34:03.595Z,3.86
2019-03-01T07:36:34.161Z,3.98
2019-03-01T07:39:06.061Z,3.87
2019-03-01T07:41:36.620Z,3.95
2019-03-01T07:44:07.213Z,3.89
2019-03-01T07:46:37.831Z,3.88
2019-03-01T07:49:08.402Z,3.94
2019-03-01T07:51:38.948Z,3.98
2019-03-01T07:54:09.510Z,4.09
2019-03-01T07:56:40.844Z,4.03
2019-03-01T07:59:11.541Z,3.99
2019-03-01T08:01:42.030Z,3.92
2019-03-01T08:04:12.703Z,3.92
2019-03-01T08:06:45.581Z,3.96
2019-03-01T08:09:15.964Z,3.90
2019-03-01T08:11:46.519Z,3.79
2019-03-01T08:14:17.037Z,3.75
2019-03-01T08:16:47.597Z,3.96
2019-03-01T08:19:22.368Z,4.21
2019-03-01T08:21:50.766Z,3.99
2019-03-01T08:24:21.333Z,4.00
2019-03-01T08:26:51.887Z,4.09
2019-03-01T08:29:22.459Z,4.28
2019-03-01T08:31:55.726Z,4.22
2019-03-01T08:34:25.315Z,4.15
2019-03-01T08:36:55.844Z,4.26
2019-03-01T08:39:26.401Z,4.37
2019-03-01T08:42:00.191Z,4.32
2019-03-01T08:44:29.288Z,4.24
2019-03-01T08:46:59.869Z,4.18
2019-03-01T08:49:30.426Z,4.07
2019-03-01T08:52:01.474Z,4.17
2019-03-01T08:54:32.848Z,4.18
2019-03-01T08:57:03.412Z,4.22
2019-03-01T08:59:33.912Z,4.12
2019-03-01T09:02:05.224Z,4.04
2019-03-01T09:04:37.913Z,4.18
2019-03-01T09:07:08.062Z,4.26
2019-03-01T09:09:38.624Z,4.34
2019-03-01T09:12:09.180Z,4.30
2019-03-01T09:14:39.721Z,4.19
2019-03-01T09:17:10.336Z,4.56
2019-03-01T09:19:40.862Z,4.52
2019-03-01T09:22:11.390Z,4.47
2019-03-01T09:24:41.914Z,4.24
2019-03-01T09:27:12.706Z,4.45
2019-03-01T09:29:43.180Z,4.61
2019-03-01T09:32:13.741Z,4.64
2019-03-01T09:34:46.117Z,4.72
2019-03-01T09:37:16.995Z,4.73
2019-03-01T09:39:50.355Z,4.47
2019-03-01T09:42:19.794Z,4.48
2019-03-01T09:44:50.256Z,4.43
2019-03-01T09:47:20.770Z,4.76
2019-03-01T09:49:51.217Z,4.69
2019-03-01T09:52:23.681Z,4.59
2019-03-01T09:54:53.968Z,4.58
2019-03-01T09:57:24.436Z,4.69
2019-03-01T09:59:54.964Z,4.87
2019-03-01T10:02:25.454Z,4.83
2019-03-01T10:04:55.953Z,4.88
2019-03-01T10:07:26.448Z,4.68
2019-03-01T10:09:58.205Z,4.65
2019-03-01T10:12:28.775Z,4.91
2019-03-01T10:14:59.284Z,4.96
2019-03-01T10:17:29.876Z,4.85
2019-03-01T10:20:00.380Z,4.82
2019-03-01T10:22:30.851Z,4.78
2019-03-01T10:25:01.464Z,4.92
2019-03-01T10:27:32.097Z,5.05
2019-03-01T10:30:02.548Z,5.06
2019-03-01T10:32:33.103Z,5.05
2019-03-01T10:35:03.512Z,5.08
2019-03-01T10:37:34.038Z,5.27
2019-03-01T10:40:05.126Z,5.46
2019-03-01T10:42:35.750Z,5.40
2019-03-01T10:45:08.319Z,5.32
2019-03-01T10:47:38.870Z,5.60
2019-03-01T10:50:10.226Z,5.51
2019-03-01T10:52:40.741Z,5.63
2019-03-01T10:55:14.363Z,5.42
2019-03-01T10:57:44.926Z,5.41
2019-03-01T11:00:27.111Z,5.40
2019-03-01T11:02:57.726Z,5.46
2019-03-01T11:05:28.357Z,5.48
2019-03-01T11:07:58.895Z,5.66
2019-03-01T11:10:35.212Z,5.72
2019-03-01T11:13:06.506Z,5.72
2019-03-01T11:15:37.004Z,5.75
2019-03-01T11:18:07.554Z,5.77
2019-03-01T11:20:38.066Z,5.78
2019-03-01T11:23:08.533Z,5.75
2019-03-01T11:25:39.005Z,5.83
2019-03-01T11:28:10.516Z,6.23
2019-03-01T11:30:41.171Z,6.01
2019-03-01T11:33:11.659Z,6.12
2019-03-01T11:35:42.142Z,6.09
2019-03-01T11:38:12.648Z,6.35
2019-03-01T11:40:43.153Z,6.68
2019-03-01T11:43:13.623Z,6.80
2019-03-01T11:45:44.096Z,6.75
2019-03-01T11:48:14.587Z,6.70
2019-03-01T11:50:45.339Z,6.48
2019-03-01T11:53:15.841Z,6.61
2019-03-01T11:55:46.391Z,6.35
2019-03-01T11:58:16.914Z,6.52
2019-03-01T12:00:52.047Z,6.63
2019-03-01T12:03:19.697Z,6.59
2019-03-01T12:05:50.225Z,6.47
2019-03-01T12:08:20.779Z,6.60
2019-03-01T12:10:51.314Z,6.76
2019-03-01T12:13:21.936Z,6.78
2019-03-01T12:15:52.444Z,7.09
2019-03-01T12:18:22.929Z,7.39
2019-03-01T12:20:53.492Z,7.63
2019-03-01T12:23:24.026Z,7.30
2019-03-01T12:25:54.494Z,7.15
2019-03-01T12:28:25.074Z,7.19
2019-03-01T12:30:55.485Z,7.32
2019-03-01T12:33:26.071Z,7.16
2019-03-01T12:35:56.613Z,7.06
2019-03-01T12:38:27.101Z,7.02
2019-03-01T12:40:57.683Z,7.02
2019-03-01T12:43:28.284Z,6.95
2019-03-01T12:45:58.844Z,7.08
2019-03-01T12:48:29.301Z,7.12
2019-03-01T12:50:59.843Z,7.15
2019-03-01T12:53:30.393Z,7.17
2019-03-01T12:56:00.884Z,7.32
2019-03-01T12:58:31.563Z,7.36
2019-03-01T13:01:02.060Z,7.44
2019-03-01T13:03:32.663Z,7.59
2019-03-01T13:06:03.831Z,7.54
2019-03-01T13:08:35.180Z,7.38
2019-03-01T13:11:05.745Z,7.46
2019-03-01T13:13:38.424Z,7.44
2019-03-01T13:16:08.500Z,7.44
2019-03-01T13:18:39.000Z,7.50
2019-03-01T13:21:12.526Z,7.23
2019-03-01T13:23:41.767Z,7.34
2019-03-01T13:26:12.350Z,7.29
2019-03-01T13:28:43.823Z,7.38
2019-03-01T13:31:15.176Z,7.24
2019-03-01T13:33:45.684Z,7.34
2019-03-01T13:36:16.287Z,7.17
2019-03-01T13:38:46.767Z,7.21
2019-03-01T13:41:17.295Z,7.43
2019-03-01T13:43:47.897Z,7.42
2019-03-01T13:46:18.491Z,7.22
2019-03-01T13:48:50.867Z,7.20
2019-03-01T13:51:21.240Z,7.27
2019-03-01T13:53:51.715Z,7.23
2019-03-01T13:56:22.287Z,7.08
2019-03-01T13:58:52.714Z,7.02
2019-03-01T14:01:23.642Z,6.98
2019-03-01T14:03:55.456Z,6.85
2019-03-01T14:06:25.953Z,7.01
2019-03-01T14:08:56.442Z,7.08
2019-03-01T14:11:26.927Z,7.12
2019-03-01T14:13:58.211Z,7.13
2019-03-01T14:16:28.815Z,7.02
2019-03-01T14:18:59.424Z,6.97
2019-03-01T14:21:32.850Z,7.01
2019-03-01T14:24:02.173Z,6.98
2019-03-01T14:26:32.666Z,6.89
2019-03-01T14:29:03.222Z,6.81
2019-03-01T14:31:33.683Z,6.85
2019-03-01T14:34:04.296Z,6.92
2019-03-01T14:36:34.857Z,7.02
2019-03-01T14:39:09.293Z,6.97
2019-03-01T14:41:39.787Z,7.04
2019-03-01T14:44:10.325Z,6.85
2019-03-01T14:46:40.914Z,6.96
2019-03-01T14:49:11.496Z,6.90
2019-03-01T14:51:46.594Z,6.95
2019-03-01T14:54:14.381Z,6.88
2019-03-01T14:57:00.024Z,6.81
2019-03-01T14:59:54.393Z,6.88
2019-03-01T15:02:40.769Z,6.94
2019-03-01T15:05:18.782Z,7.04
2019-03-01T15:07:43.867Z,6.86
2019-03-01T15:10:14.988Z,6.91
2019-03-01T15:12:45.524Z,6.88
2019-03-01T15:15:16.290Z,6.90
2019-03-01T15:17:46.797Z,6.94
2019-03-01T15:20:23.313Z,6.85
2019-03-01T15:22:49.798Z,6.96
2019-03-01T15:25:20.252Z,6.90
2019-03-01T15:27:51.345Z,6.91
2019-03-01T15:30:23.195Z,6.73
2019-03-01T15:32:53.875Z,6.67
2019-03-01T15:35:24.402Z,6.85
2019-03-01T15:37:54.972Z,6.81
2019-03-01T15:40:30.301Z,6.78
2019-03-01T15:42:58.699Z,6.76
2019-03-01T15:45:29.319Z,6.86
2019-03-01T15:48:01.858Z,6.92
2019-03-01T15:50:32.352Z,6.86
2019-03-01T15:53:02.862Z,6.88
2019-03-01T15:55:33.416Z,6.81
2019-03-01T15:58:03.905Z,6.88
2019-03-01T16:00:34.436Z,6.78
2019-03-01T16:03:05.754Z,6.73
2019-03-01T16:05:37.371Z,6.74
2019-03-01T16:08:09.697Z,6.65
2019-03-01T16:10:40.280Z,6.70
2019-03-01T16:13:12.122Z,6.62
2019-03-01T16:15:43.288Z,6.61
2019-03-01T16:18:54.345Z,6.64
2019-03-01T16:21:24.964Z,6.66
2019-03-01T16:23:55.530Z,6.56
2019-03-01T16:26:29.801Z,6.47
2019-03-01T16:28:58.439Z,6.44
2019-03-01T16:31:31.941Z,6.46
2019-03-01T16:34:04.559Z,6.47
2019-03-01T16:36:36.816Z,6.46
2019-03-01T16:39:13.261Z,6.44
2019-03-01T16:41:44.033Z,6.34
2019-03-01T16:44:14.670Z,6.31
2019-03-01T16:46:45.213Z,6.32
2019-03-01T16:49:15.776Z,6.25
2019-03-01T16:51:46.331Z,6.19
2019-03-01T16:54:16.850Z,6.22
2019-03-01T16:56:47.431Z,6.19
2019-03-01T16:59:17.898Z,6.12
2019-03-01T17:01:48.429Z,6.15
2019-03-01T17:04:20.478Z,6.11
2019-03-01T17:06:51.000Z,6.05
2019-03-01T17:09:22.625Z,6.08
2019-03-01T17:11:53.172Z,6.04
2019-03-01T17:14:23.698Z,5.93
2019-03-01T17:16:56.308Z,5.95
2019-03-01T17:19:27.563Z,5.94
2019-03-01T17:21:58.443Z,5.83
2019-03-01T17:24:29.049Z,5.87
2019-03-01T17:27:02.040Z,5.85
2019-03-01T17:29:31.958Z,5.77
2019-03-01T17:32:02.685Z,5.84
2019-03-01T17:34:33.282Z,5.80
2019-03-01T17:37:03.886Z,5.77
2019-03-01T17:39:34.467Z,5.78
2019-03-01T17:42:05.042Z,5.82
2019-03-01T17:44:35.679Z,5.72
2019-03-01T17:47:09.656Z,5.68
2019-03-01T17:49:38.485Z,5.64
2019-03-01T17:52:09.049Z,5.63
2019-03-01T17:54:39.618Z,5.55
2019-03-01T17:57:10.124Z,5.51
2019-03-01T17:59:40.569Z,5.50
2019-03-01T18:02:12.144Z,5.50
2019-03-01T18:04:43.545Z,5.50
2019-03-01T18:07:14.196Z,5.50
2019-03-01T18:09:44.769Z,5.55
2019-03-01T18:12:17.447Z,5.53
2019-03-01T18:14:47.625Z,5.52
2019-03-01T18:17:18.203Z,5.56
2019-03-01T18:19:48.787Z,5.54
2019-03-01T18:22:19.354Z,5.59
2019-03-01T18:24:50.721Z,5.54
2019-03-01T18:27:21.399Z,5.53
2019-03-01T18:29:51.937Z,5.50
2019-03-01T18:32:22.497Z,5.51
2019-03-01T18:34:52.982Z,5.52
2019-03-01T18:37:23.569Z,5.51
2019-03-01T18:39:54.085Z,5.47
2019-03-01T18:42:24.734Z,5.45
2019-03-01T18:44:55.261Z,5.44
2019-03-01T18:47:27.891Z,5.42
2019-03-01T18:49:58.146Z,5.37
2019-03-01T18:52:28.800Z,5.38
2019-03-01T18:54:59.350Z,5.45
2019-03-01T18:57:29.998Z,5.45
2019-03-01T19:00:01.110Z,5.43
2019-03-01T19:02:31.912Z,5.42
2019-03-01T19:05:04.579Z,5.33
2019-03-01T19:07:35.016Z,5.32
2019-03-01T19:10:06.714Z,5.39
2019-03-01T19:12:37.517Z,5.35
2019-03-01T19:15:12.187Z,5.42
2019-03-01T19:17:44.508Z,5.39
2019-03-01T19:20:20.270Z,5.40
2019-03-01T19:22:51.019Z,5.32
2019-03-01T19:25:25.147Z,5.32
2019-03-01T19:27:54.213Z,5.29
2019-03-01T19:30:25.025Z,5.27
2019-03-01T19:32:58.835Z,5.25
2019-03-01T19:35:29.553Z,5.34
2019-03-01T19:38:00.382Z,5.26
2019-03-01T19:40:30.953Z,5.21
2019-03-01T19:43:01.661Z,5.24
2019-03-01T19:45:32.579Z,5.23
2019-03-01T19:48:03.556Z,5.24
2019-03-01T19:50:34.358Z,5.26
2019-03-01T19:53:05.553Z,5.22
2019-03-01T19:55:36.191Z,5.26
2019-03-01T19:58:08.803Z,5.31
2019-03-01T20:00:42.617Z,5.34
2019-03-01T20:03:12.184Z,5.30
2019-03-01T20:05:42.928Z,5.34
2019-03-01T20:08:13.721Z,5.28
2019-03-01T20:10:44.452Z,5.30
2019-03-01T20:13:16.480Z,5.33
2019-03-01T20:15:47.856Z,5.32
2019-03-01T20:18:19.301Z,5.28
2019-03-01T20:20:50.168Z,5.42
2019-03-01T20:23:21.495Z,5.37
2019-03-01T20:25:52.081Z,5.35
2019-03-01T20:28:22.639Z,5.39
2019-03-01T20:30:53.224Z,5.43
2019-03-01T20:33:26.976Z,5.37
2019-03-01T20:35:56.251Z,5.37
2019-03-01T20:38:26.826Z,5.32
2019-03-01T20:40:59.822Z,5.32
2019-03-01T20:43:29.792Z,5.31
2019-03-01T20:46:00.410Z,5.31
2019-03-01T20:48:32.227Z,5.30
2019-03-01T20:51:03.082Z,5.30
2019-03-01T20:53:33.627Z,5.32
2019-03-01T20:56:04.153Z,5.32
2019-03-01T20:58:35.871Z,5.29
2019-03-01T21:01:06.989Z,5.34
2019-03-01T21:03:37.454Z,5.34
2019-03-01T21:06:07.994Z,5.27
2019-03-01T21:08:38.528Z,5.26
2019-03-01T21:11:10.229Z,5.31
2019-03-01T21:13:40.848Z,5.33
2019-03-01T21:16:11.467Z,5.31
2019-03-01T21:18:42.115Z,5.35
2019-03-01T21:21:12.778Z,5.27
2019-03-01T21:23:43.283Z,5.33
2019-03-01T21:26:15.668Z,5.26
2019-03-01T21:28:46.440Z,5.25
2019-03-01T21:31:17.058Z,5.27
2019-03-01T21:33:47.657Z,5.27
2019-03-01T21:36:18.365Z,5.26
2019-03-01T21:38:49.181Z,5.28
2019-03-01T21:41:20.768Z,5.20
2019-03-01T21:43:51.265Z,5.21
2019-03-01T21:46:21.881Z,5.23
2019-03-01T21:48:52.404Z,5.24
2019-03-01T21:51:23.013Z,5.38
2019-03-01T21:53:53.670Z,5.26
2019-03-01T21:56:24.238Z,5.24
2019-03-01T21:58:55.474Z,5.27
2019-03-01T22:01:26.043Z,5.23
2019-03-01T22:03:59.339Z,5.25
2019-03-01T22:06:28.846Z,5.35
2019-03-01T22:08:59.360Z,5.33
2019-03-01T22:11:29.831Z,5.26
2019-03-01T22:14:00.739Z,5.19
2019-03-01T22:16:32.696Z,5.19
2019-03-01T22:19:03.542Z,5.20
2019-03-01T22:21:36.730Z,5.18
2019-03-01T22:40:16.378Z,5.11
2019-03-01T22:42:49.815Z,5.10
2019-03-01T22:45:19.740Z,5.17
2019-03-01T22:47:50.615Z,5.21
2019-03-01T22:50:21.999Z,5.29
2019-03-01T22:52:53.846Z,5.24
2019-03-01T22:55:24.914Z,5.23
2019-03-01T22:57:57.735Z,5.11
2019-03-01T23:01:17.437Z,5.10
2019-03-01T23:03:57.247Z,5.15
2019-03-01T23:06:28.309Z,5.17
2019-03-01T23:08:59.242Z,5.11
2019-03-01T23:11:32.517Z,5.14
2019-03-01T23:14:03.077Z,5.19
2019-03-01T23:16:34.011Z,5.14
2019-03-01T23:19:04.982Z,5.10
2019-03-01T23:21:36.808Z,5.10
2019-03-01T23:24:07.853Z,5.08
2019-03-01T23:26:38.744Z,5.01
2019-03-01T23:29:09.769Z,5.04
2019-03-01T23:31:40.583Z,5.01
2019-03-01T23:34:12.411Z,5.03
2019-03-01T23:36:43.337Z,5.05
2019-03-01T23:39:14.280Z,5.10
2019-03-01T23:41:46.387Z,5.13
2019-03-01T23:44:17.687Z,5.02
2019-03-01T23:46:51.095Z,5.02
2019-03-01T23:49:23.958Z,5.02
2019-03-01T23:51:54.565Z,5.05
2019-03-01T23:54:25.390Z,5.02
2019-03-01T23:56:56.354Z,4.97
2019-03-01T23:59:27.549Z,4.97
